KCNW/CNW METAR and TAF weather

Enter ICAO airport designator
Station Type Date Time Source
KCNW METAR 2018/01/23 00:55 UTC NOAA

KCNW 230055Z 30003KT 10SM SKC 10/M07 A3011


Station Type Date Time Source
KCNW Decoded METAR 2018/01/23 00:55 UTC NOAA

Station name not available
Jan 22, 2018 - 07:55 PM EST / 2018.01.23 0055 UTC
Wind: from the WNW (300 degrees) at 3 MPH (3 KT):0
Visibility: 10 mile(s):0
Sky conditions: clear
Temperature: 50 F (10 C)
Dew Point: 19 F (-7 C)
Relative Humidity: 29%
Pressure (altimeter): 30.11 in. Hg (1019 hPa)
ob: KCNW 230055Z 30003KT 10SM SKC 10/M07 A3011
cycle: 1

Station Type Date Time Source
KCNW TAF UTC NOAA

Error!


Example: see airport list